Time;durP1;ratioP1;P1;durP2;ratioP2;P2;SDS_P1;SDS_P2;PMS_P1;PMS_P2;Temp;Humidity;BMP_temperature;BMP_pressure;BME280_temperature;BME280_humidity;BME280_pressure;Samples;Min_cycle;Max_cycle;Signal;HPM_P1;HPM_P2
2023/09/30 00:02:06;;;;;;;;;11.75;8.75;;;;;16.81;57.30;102028.50;5123360;27;45290;-69
2023/09/30 00:04:31;;;;;;;;;10.25;6.00;;;;;16.76;57.44;102018.06;5124692;27;45639;-69
2023/09/30 00:06:57;;;;;;;;;27.25;18.25;;;;;16.76;57.59;102019.84;5122688;27;62449;-69
2023/09/30 00:09:22;;;;;;;;;17.00;6.75;;;;;16.75;57.26;102026.94;5128745;27;70118;-68
2023/09/30 00:11:47;;;;;;;;;8.50;6.50;;;;;16.70;57.31;102029.72;5122209;27;69753;-68
2023/09/30 00:14:13;;;;;;;;;8.00;6.25;;;;;16.68;57.44;102035.97;5129171;27;51201;-68
2023/09/30 00:16:38;;;;;;;;;7.00;4.25;;;;;16.65;57.46;102041.34;5143327;27;63079;-69
2023/09/30 00:19:03;;;;;;;;;8.50;4.50;;;;;16.62;57.64;102034.34;5131762;27;73374;-68
2023/09/30 00:21:29;;;;;;;;;8.25;5.50;;;;;16.59;57.53;102041.53;5141387;27;45266;-69
2023/09/30 00:23:55;;;;;;;;;8.25;4.75;;;;;16.58;57.77;102035.38;5111504;27;45459;-69
2023/09/30 00:26:22;;;;;;;;;6.25;5.00;;;;;16.55;57.83;102035.47;5138851;27;73754;-69
2023/09/30 00:28:47;;;;;;;;;7.50;3.75;;;;;16.52;58.04;102039.09;5143452;27;45455;-69
2023/09/30 00:31:13;;;;;;;;;5.75;4.50;;;;;16.53;58.07;102039.94;5134344;27;45416;-69
2023/09/30 00:33:38;;;;;;;;;6.00;4.75;;;;;16.50;58.10;102037.38;5139684;27;65010;-69
2023/09/30 00:36:10;;;;;;;;;9.50;4.00;;;;;16.50;58.01;102043.56;5113778;27;45465;-69
2023/09/30 00:38:36;;;;;;;;;6.75;4.00;;;;;16.48;57.74;102058.59;5126896;27;46311;-69
2023/09/30 00:41:02;;;;;;;;;12.75;8.75;;;;;16.47;58.07;102058.66;5122777;27;45722;-69
2023/09/30 00:43:27;;;;;;;;;20.75;19.50;;;;;16.42;58.19;102048.19;5138259;27;45528;-69
2023/09/30 00:46:17;;;;;;;;;19.00;16.75;;;;;16.41;58.08;102035.03;5115169;27;70378;-70
2023/09/30 00:48:42;;;;;;;;;6.75;4.75;;;;;16.36;58.61;102029.03;5136940;27;46309;-69
2023/09/30 00:51:08;;;;;;;;;5.00;2.75;;;;;16.35;58.31;102033.44;5123906;27;45264;-69
2023/09/30 00:53:33;;;;;;;;;8.75;5.75;;;;;16.31;58.48;102027.41;5135882;27;45470;-69
2023/09/30 00:55:59;;;;;;;;;8.75;5.75;;;;;16.25;58.29;102014.34;5135124;27;45356;-69
2023/09/30 00:58:28;;;;;;;;;8.50;5.00;;;;;16.22;58.57;102016.22;5120033;27;74452;-69
2023/09/30 01:00:56;;;;;;;;;9.50;5.50;;;;;16.13;58.85;101999.75;5141615;27;45450;-68
2023/09/30 01:03:22;;;;;;;;;8.50;5.00;;;;;16.13;59.33;101993.63;5131084;27;45511;-67
2023/09/30 01:05:49;;;;;;;;;8.50;8.00;;;;;16.10;59.02;102001.63;5125995;27;45413;-68
2023/09/30 01:08:15;;;;;;;;;9.25;8.50;;;;;16.05;59.80;102022.03;5123934;27;46319;-68
2023/09/30 01:10:40;;;;;;;;;12.50;9.50;;;;;16.04;59.43;102037.00;5137375;27;45765;-68
2023/09/30 01:13:06;;;;;;;;;11.50;8.25;;;;;16.05;59.75;102036.09;5142033;27;59773;-68
2023/09/30 01:15:31;;;;;;;;;9.00;6.25;;;;;15.96;60.11;102019.66;5126597;27;55867;-68
2023/09/30 01:17:57;;;;;;;;;14.75;7.75;;;;;16.04;59.40;102025.56;5129446;27;47048;-68
2023/09/30 01:20:23;;;;;;;;;9.00;8.00;;;;;16.04;60.04;102030.84;5128653;27;45480;-68
2023/09/30 01:22:49;;;;;;;;;9.75;6.50;;;;;16.05;59.97;102053.72;5126492;27;45307;-67
2023/09/30 01:25:14;;;;;;;;;15.25;7.75;;;;;16.03;60.18;102056.41;5124709;27;45507;-67
2023/09/30 01:27:40;;;;;;;;;11.25;8.00;;;;;16.04;60.46;102046.69;5125019;27;73283;-67
2023/09/30 01:30:06;;;;;;;;;13.25;9.50;;;;;16.02;60.14;102041.44;5142528;27;45405;-68
2023/09/30 01:32:31;;;;;;;;;14.00;9.25;;;;;16.03;60.75;102051.13;5140803;27;45536;-68
2023/09/30 01:34:56;;;;;;;;;18.00;9.75;;;;;16.01;60.50;102044.16;5137191;27;52547;-67
2023/09/30 01:37:22;;;;;;;;;14.25;9.25;;;;;15.98;60.60;102036.31;5126255;27;45368;-68
2023/09/30 01:39:50;;;;;;;;;12.75;11.25;;;;;15.99;60.55;102038.03;5128260;27;58672;-68
2023/09/30 01:42:15;;;;;;;;;15.50;11.50;;;;;15.98;60.49;102034.53;5134329;27;45535;-68
2023/09/30 01:44:40;;;;;;;;;19.00;16.00;;;;;15.97;60.78;102018.72;5112708;27;63869;-68
2023/09/30 01:47:06;;;;;;;;;15.75;10.25;;;;;15.95;60.52;102013.50;5128141;27;63773;-68
2023/09/30 01:49:31;;;;;;;;;13.50;12.25;;;;;15.89;60.72;102008.41;5132970;27;62255;-68
2023/09/30 01:51:57;;;;;;;;;14.50;11.75;;;;;15.86;60.50;102013.75;5125487;27;69346;-68
2023/09/30 01:54:22;;;;;;;;;15.00;11.00;;;;;15.84;60.49;102016.44;5137396;27;45228;-68
2023/09/30 01:56:47;;;;;;;;;13.00;10.25;;;;;15.78;60.88;102015.78;5136634;27;72472;-68
2023/09/30 01:59:13;;;;;;;;;16.75;11.50;;;;;15.74;61.09;102009.66;5122062;27;45421;-68
2023/09/30 02:01:38;;;;;;;;;13.50;10.75;;;;;15.71;60.98;102007.97;5116237;27;64752;-68
2023/09/30 02:04:06;;;;;;;;;13.50;9.50;;;;;15.70;61.24;102011.50;5137987;27;45447;-68
2023/09/30 02:06:31;;;;;;;;;10.25;7.50;;;;;15.67;61.46;102006.34;5137990;27;46421;-68
2023/09/30 02:08:57;;;;;;;;;17.00;9.00;;;;;15.66;61.08;102009.03;5130699;27;63777;-68
2023/09/30 02:11:22;;;;;;;;;14.50;10.50;;;;;15.62;61.21;102013.53;5122158;27;66406;-68
2023/09/30 02:13:47;;;;;;;;;11.25;8.25;;;;;15.59;61.30;102016.25;5138410;27;45953;-68
2023/09/30 02:16:14;;;;;;;;;17.75;11.50;;;;;15.60;61.46;102017.09;5129493;27;51056;-68
2023/09/30 02:18:41;;;;;;;;;18.25;10.25;;;;;15.58;61.78;102025.03;5122748;27;45257;-68
2023/09/30 02:21:08;;;;;;;;;10.50;8.75;;;;;15.57;61.67;102020.69;5134009;27;45397;-68
2023/09/30 02:23:34;;;;;;;;;11.75;7.25;;;;;15.55;61.17;102007.53;5121166;27;45488;-68
2023/09/30 02:25:59;;;;;;;;;10.50;7.00;;;;;15.54;61.78;102021.63;5126796;27;47051;-68
2023/09/30 02:28:25;;;;;;;;;12.50;9.50;;;;;15.51;61.91;102019.09;5137753;27;45306;-68
2023/09/30 02:30:50;;;;;;;;;11.50;7.50;;;;;15.49;61.54;102023.56;5135761;27;45369;-68
2023/09/30 02:33:16;;;;;;;;;10.00;8.00;;;;;15.40;61.36;102007.09;5137437;27;45434;-69
2023/09/30 02:35:45;;;;;;;;;9.50;6.25;;;;;15.44;61.44;102014.91;5129591;27;71411;-68
2023/09/30 02:38:11;;;;;;;;;13.00;8.75;;;;;15.40;61.33;102010.59;5119177;27;47034;-68
2023/09/30 02:40:38;;;;;;;;;9.00;6.00;;;;;15.40;61.41;102012.38;5130493;27;45468;-68
2023/09/30 02:43:03;;;;;;;;;9.75;7.00;;;;;15.36;61.92;102006.31;5126463;27;45414;-68
2023/09/30 02:45:29;;;;;;;;;10.00;7.00;;;;;15.33;62.42;102007.28;5133489;27;45493;-68
2023/09/30 02:47:54;;;;;;;;;8.00;6.25;;;;;15.31;61.98;101997.66;5141015;27;62864;-68
2023/09/30 02:50:20;;;;;;;;;15.00;8.25;;;;;15.28;62.24;102009.16;5140393;27;60063;-68
2023/09/30 02:52:45;;;;;;;;;12.75;7.50;;;;;15.28;62.09;102016.19;5136927;27;45648;-68
2023/09/30 02:55:11;;;;;;;;;11.50;7.50;;;;;15.15;62.06;102011.22;5139494;27;73249;-68
2023/09/30 02:57:37;;;;;;;;;11.75;9.25;;;;;15.23;62.21;102021.59;5122688;27;45593;-68
2023/09/30 03:00:26;;;;;;;;;10.75;9.00;;;;;15.22;62.42;102025.13;5130115;27;45637;-68
2023/09/30 03:02:54;;;;;;;;;10.50;7.00;;;;;15.21;62.52;102027.78;5116063;27;45310;-68
2023/09/30 03:05:20;;;;;;;;;11.75;7.25;;;;;15.15;62.48;102032.31;5137372;27;46439;-68
2023/09/30 03:07:46;;;;;;;;;11.00;6.00;;;;;15.15;62.36;102040.22;5127706;27;45436;-68
2023/09/30 03:10:14;;;;;;;;;11.50;7.50;;;;;15.16;62.12;102038.47;5135948;27;45327;-68
2023/09/30 03:12:39;;;;;;;;;9.00;7.25;;;;;15.10;62.42;102030.72;5136203;27;45395;-68
2023/09/30 03:15:05;;;;;;;;;9.75;6.00;;;;;15.08;63.02;102025.47;5130454;27;46225;-69
2023/09/30 03:17:31;;;;;;;;;10.25;8.00;;;;;15.07;62.54;102034.31;5137948;27;45224;-68
2023/09/30 03:19:57;;;;;;;;;5.00;4.75;;;;;15.02;63.05;102030.06;5130526;27;45487;-68
2023/09/30 03:22:23;;;;;;;;;7.00;6.50;;;;;15.08;63.45;102043.06;5115644;27;45564;-68
2023/09/30 03:24:48;;;;;;;;;11.00;8.00;;;;;15.09;63.17;102037.75;5134136;27;63665;-68
2023/09/30 03:27:15;;;;;;;;;10.75;7.00;;;;;15.13;63.16;102043.81;5128233;27;45406;-69
2023/09/30 03:29:40;;;;;;;;;12.75;7.50;;;;;15.10;62.59;102038.63;5123397;27;45364;-68
2023/09/30 03:32:06;;;;;;;;;12.00;6.50;;;;;15.16;62.61;102047.25;5123643;27;45613;-67
2023/09/30 03:34:31;;;;;;;;;10.00;7.00;;;;;15.15;62.85;102053.41;5123735;27;47684;-67
2023/09/30 03:36:58;;;;;;;;;7.75;7.50;;;;;15.14;62.61;102045.56;5127628;27;45487;-68
2023/09/30 03:39:27;;;;;;;;;13.75;8.75;;;;;15.09;62.65;102044.81;5135356;27;45305;-69
2023/09/30 03:41:56;;;;;;;;;9.50;6.25;;;;;15.08;63.21;102062.38;5127354;27;45461;-68
2023/09/30 03:44:22;;;;;;;;;12.00;9.25;;;;;15.07;63.03;102060.66;5123993;27;45440;-69
2023/09/30 03:46:48;;;;;;;;;6.25;6.25;;;;;15.03;63.25;102050.22;5120458;27;45772;-69
2023/09/30 03:49:13;;;;;;;;;9.00;6.00;;;;;15.04;63.02;102046.69;5126927;27;45250;-68
2023/09/30 03:51:39;;;;;;;;;8.00;7.00;;;;;15.02;63.10;102051.16;5139580;27;45411;-67
2023/09/30 03:54:05;;;;;;;;;10.50;6.50;;;;;15.00;63.22;102051.19;5127974;27;46476;-68
2023/09/30 03:56:31;;;;;;;;;9.00;7.00;;;;;14.98;63.26;102053.84;5132731;27;45715;-69
2023/09/30 03:58:56;;;;;;;;;12.75;7.75;;;;;14.94;63.32;102044.28;5132928;27;45199;-68
2023/09/30 04:01:23;;;;;;;;;9.25;7.00;;;;;14.96;63.69;102038.97;5139441;27;60261;-68
2023/09/30 04:03:48;;;;;;;;;7.00;7.00;;;;;14.95;63.05;102035.47;5136478;27;45773;-68
2023/09/30 04:06:14;;;;;;;;;12.00;8.00;;;;;14.94;63.51;102031.13;5127952;27;45325;-68
2023/09/30 04:08:40;;;;;;;;;10.00;9.00;;;;;14.98;63.42;102029.25;5113679;27;45424;-68
2023/09/30 04:11:05;;;;;;;;;10.25;7.25;;;;;14.97;63.63;102023.09;5151523;27;45474;-68
2023/09/30 04:13:31;;;;;;;;;11.50;7.50;;;;;14.98;63.71;102018.72;5136846;27;66938;-66
2023/09/30 04:15:58;;;;;;;;;9.75;6.75;;;;;15.00;63.88;101999.31;5130934;27;45378;-68
2023/09/30 04:18:25;;;;;;;;;13.00;10.00;;;;;15.02;64.01;101996.63;5144410;27;45280;-68
2023/09/30 04:20:51;;;;;;;;;15.00;11.25;;;;;15.06;63.73;102003.56;5130165;27;45394;-68
2023/09/30 04:23:19;;;;;;;;;7.50;5.00;;;;;15.08;63.77;101990.34;5128540;27;45523;-68
2023/09/30 04:25:46;;;;;;;;;8.00;4.75;;;;;15.06;63.58;101971.91;5135323;27;45748;-68
2023/09/30 04:28:12;;;;;;;;;9.75;6.00;;;;;15.11;63.83;101991.13;5110320;27;45459;-68
2023/09/30 04:30:37;;;;;;;;;7.00;5.50;;;;;15.12;63.67;101968.25;5133256;27;45600;-68
2023/09/30 04:33:06;;;;;;;;;5.00;4.75;;;;;15.16;63.70;101972.56;5112847;27;48093;-68
2023/09/30 04:35:32;;;;;;;;;5.25;5.00;;;;;15.18;63.52;101976.00;5129927;27;45486;-69
2023/09/30 04:38:01;;;;;;;;;6.00;5.50;;;;;15.18;63.44;101968.97;5124257;27;45490;-68
2023/09/30 04:40:26;;;;;;;;;6.00;4.50;;;;;15.22;63.55;101982.06;5126774;27;45353;-68
2023/09/30 04:42:55;;;;;;;;;5.00;5.00;;;;;15.23;63.26;101989.06;5132993;27;46074;-68
2023/09/30 04:45:20;;;;;;;;;15.00;5.50;;;;;15.20;63.31;101987.38;5129978;27;45251;-67
2023/09/30 04:47:45;;;;;;;;;8.00;6.00;;;;;15.21;63.23;101999.69;5135784;27;69520;-68
2023/09/30 04:50:13;;;;;;;;;10.25;6.00;;;;;15.19;63.26;102012.00;5130162;27;68588;-68
2023/09/30 04:52:40;;;;;;;;;11.00;7.00;;;;;15.16;63.24;102014.75;5142856;27;46356;-69
2023/09/30 04:55:06;;;;;;;;;7.00;5.50;;;;;15.13;63.38;102006.91;5123874;27;45388;-69
2023/09/30 04:57:34;;;;;;;;;8.00;6.25;;;;;15.09;63.60;102018.44;5130821;27;45435;-68
2023/09/30 04:59:59;;;;;;;;;7.25;6.00;;;;;15.09;63.44;102026.34;5135781;27;47229;-68
2023/09/30 05:02:27;;;;;;;;;10.00;7.00;;;;;15.07;63.32;102026.41;5120563;27;46954;-69
2023/09/30 05:04:53;;;;;;;;;6.00;4.50;;;;;15.08;63.54;102016.69;5139803;27;45754;-69
2023/09/30 05:07:19;;;;;;;;;8.00;7.50;;;;;15.07;63.47;102009.69;5130867;27;45474;-69
2023/09/30 05:09:45;;;;;;;;;10.25;7.00;;;;;15.00;64.04;101996.69;5136451;27;45450;-69
2023/09/30 05:12:11;;;;;;;;;13.00;6.00;;;;;15.06;63.38;102010.63;5123132;27;67867;-69
2023/09/30 05:14:36;;;;;;;;;9.75;6.00;;;;;15.00;63.59;102004.59;5136127;27;45669;-69
2023/09/30 05:17:04;;;;;;;;;9.25;7.25;;;;;15.02;63.45;102025.63;5131972;27;45358;-69
2023/09/30 05:19:30;;;;;;;;;7.00;7.00;;;;;14.93;63.35;102024.09;5123041;27;45521;-69
2023/09/30 05:21:56;;;;;;;;;11.50;7.75;;;;;14.91;63.65;102023.28;5130772;27;47391;-69
2023/09/30 05:24:21;;;;;;;;;10.25;6.25;;;;;14.87;63.82;102020.72;5123970;27;64579;-69
2023/09/30 05:26:46;;;;;;;;;10.00;8.00;;;;;14.78;63.43;102008.66;5122777;27;45597;-68
2023/09/30 05:29:12;;;;;;;;;7.00;5.25;;;;;14.78;63.52;102027.09;5123648;27;53697;-69
2023/09/30 05:31:38;;;;;;;;;9.00;7.25;;;;;14.73;63.84;102026.34;5123428;27;46078;-69
2023/09/30 05:34:04;;;;;;;;;9.50;6.00;;;;;14.69;63.85;102041.34;5135532;27;45772;-69
2023/09/30 05:36:29;;;;;;;;;9.75;6.00;;;;;14.62;64.40;102029.22;5129846;27;46522;-68
2023/09/30 05:38:55;;;;;;;;;5.50;3.75;;;;;14.57;64.13;102031.94;5125615;27;45531;-69
2023/09/30 05:41:20;;;;;;;;;8.50;6.25;;;;;14.52;63.88;102027.66;5122760;27;47489;-70
2023/09/30 05:43:46;;;;;;;;;7.75;6.50;;;;;14.47;64.11;102034.81;5139132;27;47026;-69
2023/09/30 05:46:13;;;;;;;;;6.00;6.00;;;;;14.40;64.42;102034.09;5136767;27;45479;-69
2023/09/30 05:48:39;;;;;;;;;7.25;6.00;;;;;14.35;64.34;102023.66;5125698;27;45347;-69
2023/09/30 05:51:05;;;;;;;;;7.00;5.75;;;;;14.34;64.82;102021.94;5122537;27;45657;-68
2023/09/30 05:53:32;;;;;;;;;11.25;7.75;;;;;14.30;64.80;102009.72;5136693;27;45308;-68
2023/09/30 05:55:59;;;;;;;;;8.25;5.25;;;;;14.33;64.83;102004.38;5127988;27;45405;-69
2023/09/30 05:58:26;;;;;;;;;9.00;7.25;;;;;14.36;65.21;102006.97;5140114;27;45530;-68
2023/09/30 06:00:51;;;;;;;;;10.25;6.50;;;;;14.38;64.69;102001.66;5120470;27;47971;-68
2023/09/30 06:03:17;;;;;;;;;6.50;4.75;;;;;14.42;65.10;102005.94;5129601;27;45523;-68
2023/09/30 06:05:42;;;;;;;;;7.00;5.25;;;;;14.44;65.07;102012.91;5123103;27;57026;-68
2023/09/30 06:08:13;;;;;;;;;10.25;7.00;;;;;14.45;65.20;102011.16;5137565;27;45858;-68
2023/09/30 06:10:42;;;;;;;;;7.75;3.00;;;;;14.52;65.04;102017.13;5134436;27;45515;-68
2023/09/30 06:13:08;;;;;;;;;10.25;7.00;;;;;14.54;65.18;102024.09;5139976;27;46007;-69
2023/09/30 06:15:37;;;;;;;;;9.50;8.25;;;;;14.57;65.13;102024.03;5130011;27;47163;-69
2023/09/30 06:18:04;;;;;;;;;9.50;7.25;;;;;14.63;65.08;102023.06;5114577;27;45787;-69
2023/09/30 06:20:30;;;;;;;;;6.75;6.50;;;;;14.66;65.37;102025.63;5125184;27;47033;-69
2023/09/30 06:22:56;;;;;;;;;7.50;6.00;;;;;14.71;64.98;102034.28;5138093;27;45378;-69
2023/09/30 06:25:23;;;;;;;;;10.25;7.25;;;;;14.69;64.67;102038.72;5126895;27;45516;-69
2023/09/30 06:27:49;;;;;;;;;10.75;7.75;;;;;14.68;64.74;102037.00;5116585;27;45576;-69
2023/09/30 06:30:16;;;;;;;;;8.00;6.00;;;;;14.64;64.21;102029.19;5141607;27;45513;-69
2023/09/30 06:32:42;;;;;;;;;13.50;8.25;;;;;14.60;64.23;102007.31;5124225;27;45792;-69
2023/09/30 06:35:10;;;;;;;;;9.75;7.00;;;;;14.57;64.49;102024.03;5134140;27;45410;-69
2023/09/30 06:37:39;;;;;;;;;11.00;6.75;;;;;14.55;64.66;102043.41;5120711;27;45303;-69
2023/09/30 06:40:08;;;;;;;;;8.50;8.00;;;;;14.51;64.58;102047.00;5105885;27;48031;-69
2023/09/30 06:42:37;;;;;;;;;10.25;7.50;;;;;14.48;64.59;102061.09;5126878;27;45459;-68
2023/09/30 06:45:06;;;;;;;;;11.00;9.00;;;;;14.48;64.56;102053.19;5138450;27;47004;-68
2023/09/30 06:47:33;;;;;;;;;10.75;8.75;;;;;14.47;64.48;102040.09;5136649;27;45454;-69
2023/09/30 06:50:08;;;;;;;;;10.50;9.75;;;;;14.47;64.95;102032.19;5118930;27;46888;-68
2023/09/30 06:52:35;;;;;;;;;12.50;7.50;;;;;14.52;64.85;102035.56;5129894;27;45567;-68
2023/09/30 06:55:04;;;;;;;;;11.75;10.25;;;;;14.55;65.00;102051.31;5129583;27;45341;-69
2023/09/30 06:57:30;;;;;;;;;15.75;8.25;;;;;14.55;64.51;102051.31;5138146;27;45235;-69
2023/09/30 06:59:56;;;;;;;;;10.00;7.00;;;;;14.55;64.93;102043.41;5140787;27;45422;-69
2023/09/30 07:02:21;;;;;;;;;8.75;8.25;;;;;14.57;65.04;102044.22;5124413;27;45287;-69
2023/09/30 07:04:47;;;;;;;;;10.50;9.50;;;;;14.59;64.63;102043.34;5123066;27;57313;-69
2023/09/30 07:07:12;;;;;;;;;13.25;9.50;;;;;14.61;64.67;102038.91;5122875;27;60980;-69
2023/09/30 07:09:37;;;;;;;;;12.50;9.00;;;;;14.64;65.19;102045.84;5121080;27;55293;-70
2023/09/30 07:12:04;;;;;;;;;12.75;9.00;;;;;14.71;65.41;102041.31;5128851;27;59409;-69
2023/09/30 07:14:29;;;;;;;;;10.50;9.00;;;;;14.80;65.27;102052.53;5121875;27;45370;-69
2023/09/30 07:16:55;;;;;;;;;13.25;8.75;;;;;14.87;65.13;102049.72;5122648;27;64989;-68
2023/09/30 07:19:20;;;;;;;;;12.50;9.00;;;;;14.96;65.13;102055.66;5135335;27;68970;-69
2023/09/30 07:21:46;;;;;;;;;15.00;9.75;;;;;15.06;64.87;102060.69;5114685;27;74926;-69
2023/09/30 07:24:11;;;;;;;;;12.00;8.00;;;;;15.14;65.15;102064.88;5132429;27;45336;-68
2023/09/30 07:26:37;;;;;;;;;11.00;7.50;;;;;15.21;65.01;102051.53;5123765;27;45480;-68
2023/09/30 07:29:04;;;;;;;;;11.00;10.50;;;;;15.30;64.28;102048.69;5131586;27;70385;-68
2023/09/30 07:31:34;;;;;;;;;14.75;10.25;;;;;15.38;64.67;102051.97;5132760;27;45172;-68
2023/09/30 07:33:59;;;;;;;;;10.50;7.75;;;;;15.46;64.75;102059.72;5126589;27;45510;-68
2023/09/30 07:36:25;;;;;;;;;14.25;11.25;;;;;15.53;64.17;102051.56;5123629;27;66954;-68
2023/09/30 07:38:50;;;;;;;;;10.25;8.75;;;;;15.62;64.24;102042.56;5131748;27;46172;-68
2023/09/30 07:41:17;;;;;;;;;11.25;8.25;;;;;15.69;64.00;102044.13;5140957;27;45421;-68
2023/09/30 07:43:42;;;;;;;;;17.50;11.50;;;;;15.77;63.82;102045.72;5132316;27;45522;-68
2023/09/30 07:46:08;;;;;;;;;15.00;9.75;;;;;15.82;63.73;102054.38;5138556;27;60851;-69
2023/09/30 07:48:34;;;;;;;;;13.50;11.50;;;;;15.85;63.44;102049.00;5135727;27;45397;-70
2023/09/30 07:51:00;;;;;;;;;13.25;9.25;;;;;15.89;63.88;102054.13;5124999;27;45717;-71
2023/09/30 07:53:26;;;;;;;;;17.25;11.25;;;;;15.97;63.54;102061.88;5129251;27;45332;-71
2023/09/30 07:55:51;;;;;;;;;10.75;10.00;;;;;16.02;63.50;102061.72;5118469;27;45788;-69
2023/09/30 07:58:16;;;;;;;;;13.25;9.00;;;;;16.09;63.01;102058.84;5132181;27;65828;-70
2023/09/30 08:00:42;;;;;;;;;8.00;7.75;;;;;16.18;63.30;102063.00;5134842;27;46121;-71
2023/09/30 08:03:07;;;;;;;;;10.25;8.00;;;;;16.25;63.59;102061.03;5139331;27;45155;-68
2023/09/30 08:05:32;;;;;;;;;9.75;6.25;;;;;16.30;62.84;102073.19;5138961;27;65941;-68
2023/09/30 08:07:58;;;;;;;;;14.50;10.50;;;;;16.37;62.81;102068.59;5132790;27;48024;-68
2023/09/30 08:10:23;;;;;;;;;12.50;10.50;;;;;16.41;62.87;102064.09;5136714;27;45412;-68
2023/09/30 08:12:49;;;;;;;;;17.50;9.00;;;;;16.42;62.79;102061.41;5138859;27;45307;-69
2023/09/30 08:15:15;;;;;;;;;12.50;8.75;;;;;16.53;62.90;102071.66;5139714;27;45572;-69
2023/09/30 08:17:41;;;;;;;;;8.50;6.00;;;;;16.55;62.65;102061.91;5125559;27;48015;-69
2023/09/30 08:20:08;;;;;;;;;12.00;9.00;;;;;16.59;62.34;102071.47;5141149;27;45337;-69
2023/09/30 08:22:33;;;;;;;;;14.75;9.75;;;;;16.66;62.61;102067.72;5139090;27;45334;-67
2023/09/30 08:25:00;;;;;;;;;8.50;5.25;;;;;16.79;62.33;102072.63;5130728;27;58361;-67
2023/09/30 08:27:25;;;;;;;;;8.00;6.75;;;;;16.89;62.03;102071.44;5122832;27;45532;-67
2023/09/30 08:29:50;;;;;;;;;8.75;6.25;;;;;16.95;61.93;102073.03;5136542;27;70415;-68
2023/09/30 08:32:16;;;;;;;;;12.75;7.00;;;;;17.02;61.95;102071.94;5136780;27;45483;-67
2023/09/30 08:34:41;;;;;;;;;9.75;7.00;;;;;17.05;61.69;102074.44;5115441;27;45457;-67
2023/09/30 08:37:07;;;;;;;;;12.00;9.25;;;;;17.10;61.70;102071.66;5131917;27;45363;-66
2023/09/30 08:39:32;;;;;;;;;11.75;7.00;;;;;17.16;61.37;102074.13;5109928;27;67295;-67
2023/09/30 08:41:58;;;;;;;;;15.25;8.50;;;;;17.18;61.40;102070.50;5132597;27;45474;-67
2023/09/30 08:44:24;;;;;;;;;17.50;9.50;;;;;17.25;61.16;102076.47;5129853;27;45321;-67
2023/09/30 08:46:52;;;;;;;;;10.25;7.50;;;;;17.27;61.11;102074.63;5123191;27;48032;-67
2023/09/30 08:49:18;;;;;;;;;9.50;8.75;;;;;17.33;61.21;102084.13;5131794;27;45472;-67
2023/09/30 08:51:43;;;;;;;;;10.50;7.75;;;;;17.38;60.89;102092.78;5141800;27;69533;-67
2023/09/30 08:54:08;;;;;;;;;6.50;5.50;;;;;17.36;60.77;102098.13;5129303;27;49019;-67
2023/09/30 08:56:34;;;;;;;;;14.50;8.25;;;;;17.37;60.79;102098.97;5136687;27;68696;-67
2023/09/30 08:59:02;;;;;;;;;12.50;7.75;;;;;17.38;60.75;102098.06;5132948;27;45301;-67
2023/09/30 09:01:29;;;;;;;;;13.25;8.75;;;;;17.38;60.81;102098.06;5138273;27;45468;-67
2023/09/30 09:03:55;;;;;;;;;13.25;8.50;;;;;17.42;61.14;102103.22;5139390;27;45361;-67
2023/09/30 09:06:21;;;;;;;;;10.75;7.25;;;;;17.50;60.66;102107.38;5137405;27;47333;-67
2023/09/30 09:08:47;;;;;;;;;10.25;7.50;;;;;17.57;60.66;102106.25;5122915;27;45328;-67
2023/09/30 09:11:14;;;;;;;;;9.00;7.75;;;;;17.62;60.26;102105.19;5142957;27;45293;-67
2023/09/30 09:13:55;;;;;;;;;8.00;6.25;;;;;17.66;59.97;102098.00;5117856;27;45481;-67
2023/09/30 09:16:21;;;;;;;;;6.75;5.50;;;;;17.72;60.28;102100.41;5138431;27;45528;-67
2023/09/30 09:18:47;;;;;;;;;15.50;7.00;;;;;17.79;59.85;102099.28;5141365;27;45323;-67
2023/09/30 09:21:22;;;;;;;;;8.25;6.00;;;;;17.87;59.88;102087.59;5141550;27;45372;-67
2023/09/30 09:23:48;;;;;;;;;13.50;6.00;;;;;17.95;59.51;102082.88;5155624;27;45339;-68
2023/09/30 09:26:23;;;;;;;;;7.00;6.00;;;;;18.02;59.25;102077.31;5124071;27;45563;-66
2023/09/30 09:28:49;;;;;;;;;4.50;4.50;;;;;18.12;59.19;102072.53;5131632;27;45748;-67
2023/09/30 09:31:28;;;;;;;;;8.50;5.00;;;;;18.21;58.71;102071.31;5135029;27;45277;-66
2023/09/30 09:33:53;;;;;;;;;5.50;3.75;;;;;18.27;58.95;102067.56;5125941;27;45438;-66
2023/09/30 09:36:19;;;;;;;;;7.50;6.50;;;;;18.37;58.65;102085.69;5122421;27;48148;-66
2023/09/30 09:38:53;;;;;;;;;8.50;4.00;;;;;18.49;58.28;102086.19;5132538;27;45859;-65
2023/09/30 09:41:20;;;;;;;;;9.25;5.25;;;;;18.60;58.28;102087.47;5120680;27;45535;-65
2023/09/30 09:43:49;;;;;;;;;5.50;4.00;;;;;18.79;57.97;102102.66;5128508;27;45660;-67
2023/09/30 09:46:17;;;;;;;;;5.50;5.00;;;;;18.91;57.37;102093.38;5140416;27;45365;-67
2023/09/30 09:48:45;;;;;;;;;6.75;4.25;;;;;19.04;56.99;102102.56;5138893;27;45179;-66
2023/09/30 09:51:12;;;;;;;;;8.75;6.00;;;;;19.16;56.82;102103.88;5138499;27;45475;-66
2023/09/30 09:53:39;;;;;;;;;5.00;3.75;;;;;19.25;56.79;102099.97;5141609;27;45365;-66
2023/09/30 09:56:07;;;;;;;;;7.25;5.00;;;;;19.35;56.30;102098.63;5121557;27;48754;-70
2023/09/30 09:58:34;;;;;;;;;8.50;5.00;;;;;19.48;56.58;102105.16;5137925;27;45423;-67
2023/09/30 10:01:00;;;;;;;;;4.25;4.00;;;;;19.60;56.25;102110.88;5138662;27;45322;-67
2023/09/30 10:03:26;;;;;;;;;7.25;4.75;;;;;19.72;55.73;102097.06;5142120;27;45417;-67
2023/09/30 10:05:52;;;;;;;;;21.50;13.75;;;;;19.85;55.33;102087.66;5140360;27;46179;-67
2023/09/30 10:08:20;;;;;;;;;7.00;5.50;;;;;19.94;55.66;102081.06;5138403;27;45681;-67
2023/09/30 10:10:46;;;;;;;;;7.00;5.00;;;;;19.95;55.20;102066.00;5127427;27;45276;-67
2023/09/30 10:13:49;;;;;;;;;55.50;41.50;;;;;19.94;55.39;102066.91;5139352;27;45240;-66
2023/09/30 10:16:36;;;;;;;;;22.50;19.00;;;;;19.89;54.98;102062.69;5135418;27;48407;-66
2023/09/30 10:19:08;;;;;;;;;28.25;24.00;;;;;19.90;55.13;102064.41;5136509;27;45710;-66
2023/09/30 10:21:33;;;;;;;;;12.50;10.00;;;;;19.95;55.51;102066.84;5139946;27;45586;-67
2023/09/30 10:24:35;;;;;;;;;8.00;6.50;;;;;20.06;55.48;102072.56;5126201;27;60632;-67
2023/09/30 10:27:32;;;;;;;;;10.50;6.00;;;;;20.20;54.88;102077.25;5122010;27;48230;-67
2023/09/30 10:30:10;;;;;;;;;11.00;6.00;;;;;20.33;54.90;102072.22;5136177;27;45335;-67
2023/09/30 10:32:50;;;;;;;;;11.00;6.75;;;;;20.48;54.06;102067.94;5127644;27;45305;-68
2023/09/30 10:35:39;;;;;;;;;8.25;6.50;;;;;20.60;54.11;102063.84;5137969;27;45311;-68
2023/09/30 10:38:24;;;;;;;;;13.00;5.50;;;;;20.63;53.58;102053.13;5121363;27;46544;-68
2023/09/30 10:40:52;;;;;;;;;9.25;6.00;;;;;20.61;53.76;102053.19;5136546;27;45237;-68
2023/09/30 10:43:33;;;;;;;;;7.00;4.75;;;;;20.64;53.46;102052.16;5140355;27;45292;-67
2023/09/30 10:46:27;;;;;;;;;5.75;5.50;;;;;20.68;53.10;102053.72;5141867;27;45296;-67
2023/09/30 10:48:53;;;;;;;;;7.00;5.50;;;;;20.72;53.47;102050.00;5135866;27;46652;-68
2023/09/30 10:51:22;;;;;;;;;8.25;6.00;;;;;20.76;53.03;102048.91;5141191;27;45404;-66
2023/09/30 10:53:51;;;;;;;;;6.00;5.00;;;;;20.82;53.07;102053.06;5133253;27;45487;-66
2023/09/30 10:56:17;;;;;;;;;9.00;8.75;;;;;20.84;52.56;102049.41;5117533;27;45467;-67
2023/09/30 10:58:48;;;;;;;;;6.50;5.00;;;;;20.89;52.99;102046.50;5134906;27;48317;-67
2023/09/30 11:01:16;;;;;;;;;9.50;6.25;;;;;20.97;52.68;102040.81;5105618;27;45482;-68
2023/09/30 11:03:41;;;;;;;;;12.00;8.00;;;;;21.02;52.47;102042.28;5126008;27;45470;-68
2023/09/30 11:06:07;;;;;;;;;9.00;6.00;;;;;21.11;52.61;102035.66;5126047;27;45529;-67
2023/09/30 11:08:33;;;;;;;;;12.75;8.00;;;;;21.25;51.97;102029.63;5126032;27;45663;-67
2023/09/30 11:11:00;;;;;;;;;12.25;7.25;;;;;21.45;52.40;102025.06;5130642;27;45436;-67
2023/09/30 11:13:36;;;;;;;;;7.00;6.00;;;;;21.57;51.72;102027.13;5137270;27;45341;-67
2023/09/30 11:16:04;;;;;;;;;7.75;6.50;;;;;21.67;51.22;102025.66;5124270;27;45308;-66
2023/09/30 11:18:31;;;;;;;;;12.75;6.75;;;;;21.82;51.35;102023.16;5144700;27;45629;-67
2023/09/30 11:21:07;;;;;;;;;6.25;5.25;;;;;21.88;51.17;102023.66;5132141;27;45435;-68